createdAt,value
2023-04-06T03:02:00.639Z,1.64
2023-04-06T03:04:29.201Z,1.64
2023-04-06T03:06:59.462Z,1.63
2023-04-06T03:09:38.416Z,1.61
2023-04-06T03:12:10.183Z,1.58
2023-04-06T03:14:56.317Z,1.54
2023-04-06T03:17:24.716Z,1.54
2023-04-06T03:19:53.158Z,1.55
2023-04-06T03:22:23.024Z,1.52
2023-04-06T03:24:51.604Z,1.49
2023-04-06T03:27:23.131Z,1.49
2023-04-06T03:29:52.593Z,1.47
2023-04-06T03:32:25.973Z,1.45
2023-04-06T03:34:54.730Z,1.43
2023-04-06T03:37:25.290Z,1.40
2023-04-06T03:39:55.520Z,1.35
2023-04-06T03:42:24.959Z,1.32
2023-04-06T03:44:57.851Z,1.29
2023-04-06T03:47:26.755Z,1.29
2023-04-06T03:49:59.277Z,1.29
2023-04-06T03:52:27.908Z,1.31
2023-04-06T03:54:56.312Z,1.34
2023-04-06T03:57:24.553Z,1.33
2023-04-06T03:59:52.855Z,1.33
2023-04-06T04:02:21.120Z,1.34
2023-04-06T04:04:49.587Z,1.32
2023-04-06T04:07:18.081Z,1.31
2023-04-06T04:09:46.508Z,1.27
2023-04-06T04:12:15.898Z,1.22
2023-04-06T04:14:45.052Z,1.22
2023-04-06T04:17:13.567Z,1.23
2023-04-06T04:19:44.797Z,1.27
2023-04-06T04:22:13.022Z,1.28
2023-04-06T04:24:41.730Z,1.27
2023-04-06T04:27:11.197Z,1.27
2023-04-06T04:29:39.547Z,1.28
2023-04-06T04:32:09.760Z,1.29
2023-04-06T04:34:41.325Z,1.30
2023-04-06T04:37:11.653Z,1.31
2023-04-06T04:39:48.330Z,1.31
2023-04-06T04:42:17.458Z,1.29
2023-04-06T04:44:49.779Z,1.27
2023-04-06T04:47:23.344Z,1.29
2023-04-06T04:49:53.747Z,1.31
2023-04-06T04:52:24.021Z,1.28
2023-04-06T04:55:15.081Z,1.26
2023-04-06T04:57:44.352Z,1.25
2023-04-06T05:00:12.911Z,1.26
2023-04-06T05:02:42.725Z,1.27
2023-04-06T05:05:37.495Z,1.26
2023-04-06T05:08:07.322Z,1.29
2023-04-06T05:10:49.846Z,1.34
2023-04-06T05:13:19.313Z,1.38
2023-04-06T05:15:48.790Z,1.44
2023-04-06T05:18:26.085Z,1.47
2023-04-06T05:20:54.975Z,1.52
2023-04-06T05:23:29.411Z,1.54
2023-04-06T05:25:59.677Z,1.54
2023-04-06T05:28:28.562Z,1.55
2023-04-06T05:30:58.577Z,1.59
2023-04-06T05:33:30.912Z,1.64
2023-04-06T05:36:13.761Z,1.72
2023-04-06T05:38:45.804Z,1.80
2023-04-06T05:41:43.252Z,1.90
2023-04-06T05:44:12.395Z,1.95
2023-04-06T05:46:41.754Z,2.00
2023-04-06T05:49:13.988Z,2.07
2023-04-06T05:51:42.558Z,2.12
2023-04-06T05:54:11.737Z,2.16
2023-04-06T05:56:40.522Z,2.20
2023-04-06T05:59:11.465Z,2.24
2023-04-06T06:01:40.345Z,2.27
2023-04-06T06:04:09.677Z,2.29
2023-04-06T06:06:40.369Z,2.31
2023-04-06T06:09:14.928Z,2.33
2023-04-06T06:11:50.001Z,2.33
2023-04-06T06:14:18.976Z,2.31
2023-04-06T06:16:47.833Z,2.29
2023-04-06T06:19:17.240Z,2.30
2023-04-06T06:21:46.283Z,2.36
2023-04-06T06:24:14.857Z,2.41
2023-04-06T06:26:44.750Z,2.48
2023-04-06T06:29:14.226Z,2.53
2023-04-06T06:31:42.765Z,2.60
2023-04-06T06:34:11.996Z,2.68
2023-04-06T06:36:41.431Z,2.77
2023-04-06T06:39:11.423Z,2.83
2023-04-06T06:41:41.030Z,2.90
2023-04-06T06:44:10.600Z,2.96
2023-04-06T06:46:38.932Z,3.05
2023-04-06T06:49:08.576Z,3.11
2023-04-06T06:51:40.698Z,3.15
2023-04-06T06:54:10.044Z,3.20
2023-04-06T06:56:39.628Z,3.28
2023-04-06T06:59:09.214Z,3.38
2023-04-06T07:01:38.355Z,3.47
2023-04-06T07:04:09.335Z,3.54
2023-04-06T07:06:38.367Z,3.56
2023-04-06T07:09:09.812Z,3.53
2023-04-06T07:11:38.208Z,3.54
2023-04-06T07:14:08.442Z,3.59
2023-04-06T07:16:37.651Z,3.66
2023-04-06T07:19:06.795Z,3.74
2023-04-06T07:21:35.922Z,3.82
2023-04-06T07:24:04.352Z,3.92
2023-04-06T07:26:33.145Z,4.05
2023-04-06T07:29:01.759Z,4.11
2023-04-06T07:31:31.243Z,4.16
2023-04-06T07:34:00.022Z,4.34
2023-04-06T07:36:28.194Z,4.56
2023-04-06T07:38:56.898Z,4.74
2023-04-06T07:41:26.277Z,4.79
2023-04-06T07:43:54.544Z,4.79
2023-04-06T07:46:23.557Z,4.85
2023-04-06T07:48:53.210Z,4.93
2023-04-06T07:51:21.571Z,4.97
2023-04-06T07:53:51.980Z,5.01
2023-04-06T07:56:20.330Z,5.00
2023-04-06T07:58:49.957Z,4.99
2023-04-06T08:01:19.293Z,5.01
2023-04-06T08:03:48.453Z,5.04
2023-04-06T08:06:18.235Z,4.99
2023-04-06T08:08:47.067Z,4.83
2023-04-06T08:11:34.767Z,4.75
2023-04-06T08:14:03.078Z,4.66
2023-04-06T08:16:32.150Z,4.61
2023-04-06T08:19:03.840Z,4.60
2023-04-06T08:21:32.043Z,4.54
2023-04-06T08:24:02.232Z,4.51
2023-04-06T08:26:32.215Z,4.50
2023-04-06T08:29:00.820Z,4.48
2023-04-06T08:31:45.142Z,4.46
2023-04-06T08:34:39.817Z,4.46
2023-04-06T08:37:52.154Z,4.45
2023-04-06T08:40:20.150Z,4.48
2023-04-06T08:42:52.159Z,4.55
2023-04-06T08:45:22.604Z,4.60
2023-04-06T08:47:54.308Z,4.68
2023-04-06T08:50:23.063Z,4.76
2023-04-06T08:52:51.394Z,4.81
2023-04-06T08:55:20.289Z,4.81
2023-04-06T08:57:49.394Z,4.77
2023-04-06T09:00:17.851Z,4.68
2023-04-06T09:02:48.052Z,4.60
2023-04-06T09:05:16.676Z,4.50
2023-04-06T09:07:47.431Z,4.46
2023-04-06T09:10:16.741Z,4.52
2023-04-06T09:12:46.407Z,4.58
2023-04-06T09:15:24.111Z,4.60
2023-04-06T09:17:55.990Z,4.60
2023-04-06T09:20:28.995Z,4.57
2023-04-06T09:22:57.829Z,4.53
2023-04-06T09:25:29.368Z,4.55
2023-04-06T09:28:02.049Z,4.60
2023-04-06T09:30:30.152Z,4.64
2023-04-06T09:33:00.936Z,4.66
2023-04-06T09:35:31.550Z,4.68
2023-04-06T09:38:00.070Z,4.66
2023-04-06T09:40:30.601Z,4.68
2023-04-06T09:43:01.291Z,4.76
2023-04-06T09:45:32.376Z,4.86
2023-04-06T09:48:01.397Z,4.96
2023-04-06T09:50:31.801Z,5.09
2023-04-06T09:53:01.294Z,5.08
2023-04-06T09:55:36.808Z,5.08
2023-04-06T09:58:07.070Z,5.23
2023-04-06T10:00:46.237Z,5.27
2023-04-06T10:03:15.051Z,5.39
2023-04-06T10:05:44.544Z,5.45
2023-04-06T10:08:14.018Z,5.49
2023-04-06T10:10:43.560Z,5.60
2023-04-06T10:13:16.779Z,5.67
2023-04-06T10:15:46.712Z,5.70
2023-04-06T10:18:19.295Z,5.67
2023-04-06T10:20:51.746Z,5.63
2023-04-06T10:23:35.672Z,5.69
2023-04-06T10:26:08.846Z,5.80
2023-04-06T10:28:38.413Z,5.85
2023-04-06T10:31:07.306Z,5.80
2023-04-06T10:33:35.987Z,5.78
2023-04-06T10:36:12.040Z,5.72
2023-04-06T10:38:42.156Z,5.75
2023-04-06T10:41:14.840Z,5.71
2023-04-06T10:43:44.041Z,5.72
2023-04-06T10:46:13.444Z,5.74
2023-04-06T10:48:42.675Z,5.69
2023-04-06T10:51:12.603Z,5.65
2023-04-06T10:53:43.730Z,5.48
2023-04-06T10:56:16.213Z,5.43
2023-04-06T10:58:52.916Z,5.46
2023-04-06T11:01:22.865Z,5.41
2023-04-06T11:03:52.972Z,5.37
2023-04-06T11:06:21.694Z,5.35
2023-04-06T11:08:50.760Z,5.35
2023-04-06T11:11:20.215Z,5.33
2023-04-06T11:13:50.845Z,5.33
2023-04-06T11:16:21.407Z,5.34
2023-04-06T11:18:52.958Z,5.33
2023-04-06T11:21:45.206Z,5.28
2023-04-06T11:24:14.944Z,5.25
2023-04-06T11:26:46.106Z,5.20
2023-04-06T11:29:15.034Z,5.12
2023-04-06T11:31:46.816Z,4.97
2023-04-06T11:34:19.741Z,4.82
2023-04-06T11:36:49.739Z,4.73
2023-04-06T11:39:22.520Z,4.65
2023-04-06T11:41:52.071Z,4.54
2023-04-06T11:44:36.256Z,4.47
2023-04-06T11:47:06.509Z,4.44
2023-04-06T11:49:37.439Z,4.43
2023-04-06T11:52:26.492Z,4.46
2023-04-06T11:54:56.253Z,4.45
2023-04-06T11:57:29.626Z,4.47
2023-04-06T11:59:57.584Z,4.51
2023-04-06T12:02:26.916Z,4.51
2023-04-06T12:04:55.697Z,4.48
2023-04-06T12:07:24.825Z,4.49
2023-04-06T12:09:53.812Z,4.42
2023-04-06T12:12:22.872Z,4.38
2023-04-06T12:14:51.876Z,4.40
2023-04-06T12:17:22.295Z,4.45
2023-04-06T12:19:51.479Z,4.57
2023-04-06T12:22:20.894Z,4.73
2023-04-06T12:24:49.060Z,4.88
2023-04-06T12:27:17.915Z,4.97
2023-04-06T12:29:46.604Z,4.97
2023-04-06T12:32:15.307Z,4.94
2023-04-06T12:34:43.618Z,4.96
2023-04-06T12:37:12.614Z,5.02
2023-04-06T12:39:41.077Z,5.05
2023-04-06T12:42:10.725Z,5.01
2023-04-06T12:44:39.798Z,4.97
2023-04-06T12:47:08.962Z,4.88
2023-04-06T12:49:37.721Z,4.71
2023-04-06T12:52:05.764Z,4.57
2023-04-06T12:54:34.548Z,4.44
2023-04-06T12:57:03.598Z,4.37
2023-04-06T12:59:36.937Z,4.31
2023-04-06T13:02:06.227Z,4.28
2023-04-06T13:04:34.889Z,4.21
2023-04-06T13:07:03.595Z,4.15
2023-04-06T13:09:32.516Z,4.17
2023-04-06T13:12:01.143Z,4.15
2023-04-06T13:14:30.089Z,4.16
2023-04-06T13:16:59.114Z,4.19
2023-04-06T13:19:27.875Z,4.23
2023-04-06T13:21:57.100Z,4.30
2023-04-06T13:24:26.148Z,4.33
2023-04-06T13:26:54.651Z,4.37
2023-04-06T13:29:23.514Z,4.44
2023-04-06T13:31:52.469Z,4.44
2023-04-06T13:34:20.874Z,4.45
2023-04-06T13:36:49.779Z,4.44
2023-04-06T13:39:18.717Z,4.41
2023-04-06T13:41:46.756Z,4.41
2023-04-06T13:44:15.674Z,4.43
2023-04-06T13:46:44.930Z,4.46
2023-04-06T13:49:13.912Z,4.48
2023-04-06T13:51:43.952Z,4.54
2023-04-06T13:54:12.508Z,4.59
2023-04-06T13:56:40.810Z,4.64
2023-04-06T13:59:08.975Z,4.73
2023-04-06T14:01:38.412Z,4.81
2023-04-06T14:04:10.443Z,4.85
2023-04-06T14:06:40.183Z,4.86
2023-04-06T14:09:08.791Z,4.86
2023-04-06T14:11:40.391Z,4.90
2023-04-06T14:14:12.797Z,4.93
2023-04-06T14:16:42.317Z,4.92
2023-04-06T14:19:11.559Z,4.87
2023-04-06T14:21:43.797Z,4.79
2023-04-06T14:24:13.598Z,4.73
2023-04-06T14:26:46.092Z,4.70
2023-04-06T14:29:14.842Z,4.72
2023-04-06T14:31:43.750Z,4.73
2023-04-06T14:34:12.756Z,4.69
2023-04-06T14:36:41.719Z,4.66
2023-04-06T14:39:11.121Z,4.63
2023-04-06T14:41:39.323Z,4.66
2023-04-06T14:44:13.938Z,4.70
2023-04-06T14:46:43.102Z,4.68
2023-04-06T14:49:11.980Z,4.64
2023-04-06T14:51:41.509Z,4.65
2023-04-06T14:54:10.324Z,4.70
2023-04-06T14:56:39.844Z,4.72
2023-04-06T14:59:07.922Z,4.74
2023-04-06T15:01:37.953Z,4.68
2023-04-06T15:04:07.364Z,4.61
2023-04-06T15:06:36.441Z,4.58
2023-04-06T15:09:05.281Z,4.58
2023-04-06T15:11:33.636Z,4.58
2023-04-06T15:14:03.059Z,4.58
2023-04-06T15:16:34.186Z,4.56
2023-04-06T15:19:03.252Z,4.51
2023-04-06T15:21:32.387Z,4.47
2023-04-06T15:24:00.727Z,4.44
2023-04-06T15:26:28.867Z,4.39
2023-04-06T15:28:57.839Z,4.36
2023-04-06T15:31:36.726Z,4.33
2023-04-06T15:34:09.658Z,4.31
2023-04-06T15:36:38.253Z,4.31
2023-04-06T15:39:10.084Z,4.33
2023-04-06T15:41:39.000Z,4.35
2023-04-06T15:44:07.216Z,4.35
2023-04-06T15:46:35.990Z,4.36
2023-04-06T15:49:04.615Z,4.34
2023-04-06T15:51:33.749Z,4.34
2023-04-06T15:54:02.016Z,4.33
2023-04-06T15:56:30.857Z,4.33
2023-04-06T15:59:00.458Z,4.30
2023-04-06T16:01:29.367Z,4.26
2023-04-06T16:03:58.325Z,4.21
2023-04-06T16:06:27.658Z,4.18
2023-04-06T16:08:56.478Z,4.17
2023-04-06T16:11:25.187Z,4.17
2023-04-06T16:13:55.478Z,4.17
2023-04-06T16:16:24.065Z,4.15
2023-04-06T16:18:52.829Z,4.15
2023-04-06T16:21:21.703Z,4.13
2023-04-06T16:23:50.617Z,4.11
2023-04-06T16:26:19.359Z,4.06
2023-04-06T16:28:48.083Z,4.02
2023-04-06T16:31:23.329Z,3.99
2023-04-06T16:33:56.639Z,3.95
2023-04-06T16:36:25.807Z,3.93
2023-04-06T16:38:55.231Z,3.90
2023-04-06T16:41:23.914Z,3.85
2023-04-06T16:43:53.723Z,3.81
2023-04-06T16:46:22.610Z,3.76
2023-04-06T16:48:51.116Z,3.70
2023-04-06T16:51:19.408Z,3.66
2023-04-06T16:53:48.377Z,3.62
2023-04-06T16:56:16.783Z,3.60
2023-04-06T16:58:46.255Z,3.61
2023-04-06T17:01:21.464Z,3.62
2023-04-06T17:03:50.875Z,3.62
2023-04-06T17:06:19.766Z,3.60
2023-04-06T17:08:48.439Z,3.56
2023-04-06T17:11:21.792Z,3.52
2023-04-06T17:13:54.145Z,3.51
2023-04-06T17:16:22.380Z,3.51
2023-04-06T17:18:50.714Z,3.52
2023-04-06T17:21:21.166Z,3.50
2023-04-06T17:23:49.344Z,3.51
2023-04-06T17:26:18.065Z,3.50
2023-04-06T17:28:46.184Z,3.49
2023-04-06T17:31:14.823Z,3.47
2023-04-06T17:33:43.049Z,3.46
2023-04-06T17:36:12.867Z,3.45
2023-04-06T17:38:44.350Z,3.44
2023-04-06T17:41:13.747Z,3.43
2023-04-06T17:43:42.564Z,3.42
2023-04-06T17:46:11.062Z,3.40
2023-04-06T17:48:39.869Z,3.36
2023-04-06T17:51:08.507Z,3.36
2023-04-06T17:53:37.438Z,3.36
2023-04-06T17:56:06.685Z,3.35
2023-04-06T17:58:38.386Z,3.34
2023-04-06T18:01:08.985Z,3.32
2023-04-06T18:03:37.836Z,3.32
2023-04-06T18:06:12.908Z,3.31
2023-04-06T18:08:41.955Z,3.31
2023-04-06T18:11:18.559Z,3.33
2023-04-06T18:13:47.047Z,3.32
2023-04-06T18:16:17.863Z,3.28
2023-04-06T18:18:46.267Z,3.27
2023-04-06T18:21:14.540Z,3.24
2023-04-06T18:23:42.744Z,3.20
2023-04-06T18:26:17.034Z,3.17
2023-04-06T18:28:45.841Z,3.15
2023-04-06T18:31:14.498Z,3.12
2023-04-06T18:33:42.621Z,3.12
2023-04-06T18:36:11.858Z,3.10
2023-04-06T18:38:49.549Z,3.04
2023-04-06T18:41:18.213Z,2.99
2023-04-06T18:43:46.535Z,2.97
2023-04-06T18:46:16.600Z,2.96
2023-04-06T18:48:45.711Z,2.95
2023-04-06T18:51:13.846Z,2.95
2023-04-06T18:53:42.322Z,2.95
2023-04-06T18:56:19.965Z,2.95
2023-04-06T18:58:49.408Z,2.92
2023-04-06T19:01:21.758Z,2.88
2023-04-06T19:03:50.024Z,2.87
2023-04-06T19:06:18.476Z,2.86
2023-04-06T19:08:48.043Z,2.86
2023-04-06T19:11:16.861Z,2.87
2023-04-06T19:13:50.396Z,2.86
2023-04-06T19:16:19.380Z,2.83
2023-04-06T19:18:48.119Z,2.83
2023-04-06T19:21:24.926Z,2.81
2023-04-06T19:23:58.304Z,2.78
2023-04-06T19:26:32.755Z,2.75
2023-04-06T19:29:04.589Z,2.70
2023-04-06T19:31:33.768Z,2.68
2023-04-06T19:34:02.916Z,2.70
2023-04-06T19:36:33.086Z,2.70
2023-04-06T19:39:01.881Z,2.67
2023-04-06T19:41:30.214Z,2.64
2023-04-06T19:43:58.263Z,2.64
2023-04-06T19:46:26.952Z,2.62
2023-04-06T19:48:55.609Z,2.60
2023-04-06T19:51:23.884Z,2.59
2023-04-06T19:53:52.473Z,2.54
2023-04-06T19:56:21.078Z,2.52
2023-04-06T19:58:49.907Z,2.54
2023-04-06T20:01:18.778Z,2.54
2023-04-06T20:03:47.806Z,2.55
2023-04-06T20:06:17.805Z,2.56
2023-04-06T20:08:47.384Z,2.55
2023-04-06T20:11:16.832Z,2.52
2023-04-06T20:13:45.085Z,2.51
2023-04-06T20:16:13.733Z,2.51
2023-04-06T20:18:42.216Z,2.50
2023-04-06T20:21:11.559Z,2.48
2023-04-06T20:23:40.192Z,2.48
2023-04-06T20:26:10.044Z,2.47
2023-04-06T20:28:39.865Z,2.47
2023-04-06T20:31:08.401Z,2.47
2023-04-06T20:33:37.114Z,2.48
2023-04-06T20:36:05.506Z,2.51
2023-04-06T20:38:34.182Z,2.54
2023-04-06T20:41:02.725Z,2.53
2023-04-06T20:43:31.995Z,2.54
2023-04-06T20:46:02.571Z,2.53
2023-04-06T20:48:33.664Z,2.51
2023-04-06T20:51:04.786Z,2.53
2023-04-06T20:53:33.451Z,2.54
2023-04-06T20:56:03.682Z,2.57
2023-04-06T20:58:32.651Z,2.60
2023-04-06T21:01:01.635Z,2.64
2023-04-06T21:03:31.177Z,2.65
2023-04-06T21:06:01.153Z,2.65
2023-04-06T21:08:30.196Z,2.64
2023-04-06T21:10:58.969Z,2.65
2023-04-06T21:13:28.150Z,2.63
2023-04-06T21:15:57.322Z,2.63
2023-04-06T21:18:25.544Z,2.62
2023-04-06T21:20:54.106Z,2.63
2023-04-06T21:23:23.691Z,2.61
2023-04-06T21:25:52.195Z,2.59
2023-04-06T21:28:20.526Z,2.61
2023-04-06T21:30:52.232Z,2.64
2023-04-06T21:33:21.043Z,2.69
2023-04-06T21:35:49.149Z,2.73
2023-04-06T21:38:17.344Z,2.76
2023-04-06T21:40:45.832Z,2.78
2023-04-06T21:43:14.262Z,2.81
2023-04-06T21:45:48.596Z,2.83
2023-04-06T21:48:17.570Z,2.83
2023-04-06T21:50:45.742Z,2.83
2023-04-06T21:53:14.465Z,2.85
2023-04-06T21:55:47.019Z,2.88
2023-04-06T21:58:16.394Z,2.92
2023-04-06T22:00:45.028Z,2.93
2023-04-06T22:03:13.950Z,2.96
2023-04-06T22:05:42.860Z,2.99
2023-04-06T22:08:17.892Z,3.00
2023-04-06T22:10:50.124Z,3.00
2023-04-06T22:13:18.746Z,3.02
2023-04-06T22:15:47.525Z,3.03
2023-04-06T22:18:16.378Z,3.04
2023-04-06T22:20:45.363Z,3.02
2023-04-06T22:23:14.343Z,2.98
2023-04-06T22:25:43.740Z,2.95
2023-04-06T22:28:12.126Z,2.94
2023-04-06T22:30:40.889Z,2.94
2023-04-06T22:33:09.473Z,2.95
2023-04-06T22:35:38.061Z,2.97
2023-04-06T22:38:06.856Z,2.97
2023-04-06T22:40:35.812Z,2.96
2023-04-06T22:43:04.581Z,2.98
2023-04-06T22:45:33.214Z,3.00
2023-04-06T22:48:01.783Z,2.98
2023-04-06T22:50:29.854Z,2.98
2023-04-06T22:52:58.585Z,2.99
2023-04-06T22:55:27.619Z,2.98
2023-04-06T22:57:56.429Z,2.98
2023-04-06T23:00:25.652Z,2.97
2023-04-06T23:02:54.487Z,2.96
2023-04-06T23:05:23.538Z,2.94
2023-04-06T23:07:52.710Z,2.94
2023-04-06T23:10:21.591Z,2.93
2023-04-06T23:12:50.139Z,2.93
2023-04-06T23:15:18.904Z,2.95
2023-04-06T23:17:47.342Z,2.96
2023-04-06T23:20:16.342Z,2.99
2023-04-06T23:22:45.248Z,3.00
2023-04-06T23:25:14.066Z,3.03
2023-04-06T23:27:42.744Z,3.02
2023-04-06T23:30:11.996Z,3.03
2023-04-06T23:32:41.049Z,3.04
2023-04-06T23:35:10.346Z,3.06
2023-04-06T23:37:39.177Z,3.08
2023-04-06T23:40:08.551Z,3.08
2023-04-06T23:42:37.888Z,3.09
2023-04-06T23:45:07.545Z,3.08
2023-04-06T23:47:36.009Z,3.10
2023-04-06T23:50:05.868Z,3.12
2023-04-06T23:52:38.074Z,3.13
2023-04-06T23:55:07.787Z,3.13
2023-04-06T23:57:36.356Z,3.14
